Flight Track Log - Related Links

Times and Time Zones

All times are in EDT time to prevent confusion due to time zone crossing. See the KAP1286 flight status page for this flight to view local times or setup timezone preferences in your user account.

Time Position Orientation Groundspeed Altitude Reporting Facility
EDT Latitude Longitude Course Direction KTS MPH feet Rate Location/Type
Wed 02:11:30 PM 39.7044 -77.7656 90° East 173 199 1,900  Level Washington Center
Wed 02:12:30 PM 39.6997 -77.7975 259° West 149 171 3,200 992 Climbing Washington Center
Wed 02:13:31 PM 39.6969 -77.8433 266° West 133 153 3,900 454 Climbing Washington Center
Wed 02:14:00 PM 39.9052 -77.5615 37° Northeast  Level FlightAware Approximate
Wed 02:14:29 PM 39.6897 -77.8972 260° West 139 160 4,100  Level Washington Center
Wed 02:15:00 PM 39.9333 -77.5262 90° East  Level FlightAware Approximate
Wed 02:15:29 PM 39.6906 -77.9483 271° West 147 169 5,000  Level Washington Center
Wed 02:16:30 PM 39.7139 -77.9383 18° North 96 110 5,700 885 Climbing Washington Center
Wed 02:17:31 PM 39.7231 -77.8928 75° East 60 69 6,800 700 Climbing Washington Center
Wed 02:18:30 PM 39.7344 -77.8444 73° East 97 112 7,100 101 Climbing Washington Center
Wed 02:19:30 PM 39.7478 -77.7856 74° East 140 161 7,000  Descending Washington Center
Wed 02:20:31 PM 39.7842 -77.7436 42° Northeast 153 176 7,100 -50 Climbing Washington Center
Wed 02:21:31 PM 39.8244 -77.7042 37° Northeast 159 183 6,900 -102 Descending Washington Center
Wed 02:22:29 PM 39.8583 -77.6619 44° Northeast 166 191 6,900  Level Washington Center
Wed 02:24:00 PM 39.8799 -77.5861 14° North  Level Estimated
Wed 02:31:00 PM 39.9458 -77.2403 86° East  Level FlightAware Approximate
Wed 02:32:00 PM 39.9483 -77.1870 87° East  Level FlightAware Approximate
Wed 02:33:00 PM 39.9500 -77.1337 90° East  Level FlightAware Approximate
Wed 02:34:00 PM 39.9500 -77.0803 90° East  Level FlightAware Approximate
Wed 02:35:00 PM 39.9500 -77.0268 90° East  Level FlightAware Approximate
Wed 02:36:00 PM 39.9500 -76.9734 90° East  Level FlightAware Approximate
Wed 02:37:00 PM 39.9501 -76.9200 90° East  Level FlightAware Approximate
Wed 02:38:00 PM 39.9501 -76.8666 90° East  Level FlightAware Approximate
Wed 02:39:00 PM 39.9500 -76.8132 90° East  Level FlightAware Approximate
Wed 02:40:00 PM 39.9500 -76.7598 90° East  Level FlightAware Approximate
Wed 02:41:00 PM 39.9500 -76.7064 90° East  Level FlightAware Approximate
Wed 02:42:00 PM 39.9500 -76.6529 90° East  Level FlightAware Approximate
Wed 02:43:00 PM 39.9572 -76.6023 57° Northeast  Level FlightAware Approximate
Wed 02:43:42 PM 40.2736 -76.5603 57° Northeast 155 178 6,900  Level New York Center
Wed 02:44:00 PM 39.9796 -76.5576 57° Northeast  Level FlightAware Approximate
Wed 02:44:42 PM 40.2903 -76.5208 61° Northeast 164 189 7,700  Level New York Center
Wed 02:45:00 PM 40.0020 -76.5128 57° Northeast  Level FlightAware Approximate
Wed 02:45:43 PM 40.3114 -76.4708 61° Northeast 148 170 8,700  Level New York Center
Wed 02:46:00 PM 40.0243 -76.4680 57° Northeast  Level FlightAware Approximate
Wed 02:46:41 PM 40.3303 -76.4261 61° Northeast 148 170 8,900  Level New York Center
Wed 02:47:00 PM 40.0467 -76.4233 57° Northeast  Level FlightAware Approximate
Wed 02:47:41 PM 40.3581 -76.3683 58° Northeast 159 183 8,900  Level New York Center
Wed 02:48:00 PM 40.0691 -76.3785 57° Northeast  Level FlightAware Approximate
Wed 02:48:42 PM 40.3831 -76.3214 55° Northeast 159 183 8,900  Level New York Center
Wed 02:49:00 PM 40.0915 -76.3337 57° Northeast  Level FlightAware Approximate
Wed 02:49:43 PM 40.4039 -76.2767 59° Northeast 159 183 8,900  Level New York Center
Wed 02:50:43 PM 40.4192 -76.2181 71° East 153 176 8,900  Level New York Center
Wed 02:51:41 PM 40.4344 -76.1592 71° East 153 176 8,900  Level New York Center
Wed 02:52:42 PM 40.4467 -76.1164 69° East 148 170 8,900 50 Level New York Center
Wed 02:53:42 PM 40.4600 -76.0547 74° East 153 176 9,000 50 Climbing New York Center
Wed 02:54:41 PM 40.4731 -75.9931 74° East 148 170 9,000 50 Level New York Center
Wed 02:55:41 PM 40.4939 -75.9481 59° Northeast 143 165 9,100  Climbing New York Center
Wed 02:56:41 PM 40.5383 -75.9350 13° North 154 177 9,000 -50 Descending New York Center
Wed 02:57:42 PM 40.5847 -75.9194 14° North 173 199 9,000 50 Level New York Center
Wed 02:58:42 PM 40.6375 -75.9042 12° North 173 199 9,100 -50 Climbing New York Center
Wed 02:59:41 PM 40.6819 -75.8883 15° North 173 199 8,900 -101 Descending New York Center
Wed 03:00:41 PM 40.7306 -75.8728 14° North 168 193 8,900  Level New York Center
Wed 03:01:41 PM 40.7731 -75.8542 18° North 168 193 8,900  Level New York Center
Wed 03:02:42 PM 40.8219 -75.8331 18° North 168 193 8,900  Level New York Center
Wed 03:03:42 PM 40.8750 -75.8122 17° North 174 200 8,900  Level New York Center
Wed 03:04:41 PM 40.9214 -75.7939 17° North 174 200 8,900  Level New York Center
Wed 03:05:43 PM 40.9703 -75.7756 16° North 174 200 8,900  Level New York Center
Wed 03:06:42 PM 41.0189 -75.7542 18° North 174 200 8,900  Level New York Center
Wed 03:07:43 PM 41.0633 -75.7383 15° North 174 200 8,900  Level New York Center
Wed 03:08:43 PM 41.1142 -75.7200 15° North 169 194 8,900  Level New York Center
Wed 03:09:41 PM 41.1631 -75.6986 18° North 175 201 8,900 51 Level New York Center
Wed 03:10:41 PM 41.2036 -75.6714 27° Northeast 167 192 9,000  Climbing New York Center
Wed 03:11:42 PM 41.2267 -75.6206 59° Northeast 162 186 8,900 -50 Descending New York Center
Wed 03:12:42 PM 41.2581 -75.5650 53° Northeast 169 194 8,900  Level New York Center
Wed 03:13:43 PM 41.2869 -75.5172 51° Northeast 164 189 8,900  Level New York Center
Wed 03:14:43 PM 41.3161 -75.4669 52° Northeast 164 189 8,900  Level New York Center
Wed 03:15:41 PM 41.3428 -75.4244 50° Northeast 164 189 8,900  Level New York Center
Wed 03:16:41 PM 41.3719 -75.3711 54° Northeast 169 194 8,900  Level New York Center
Wed 03:17:41 PM 41.4033 -75.3125 54° Northeast 169 194 8,900  Level New York Center
Wed 03:18:42 PM 41.4322 -75.2675 49° Northeast 169 194 8,900 34 Level New York Center
Wed 03:20:39 PM 41.4897 -75.1811 48° Northeast 170 196 9,000 34 Climbing Boston Center
Wed 03:21:39 PM 41.5056 -75.1261 69° East 157 181 9,000  Level Boston Center
Wed 03:22:39 PM 41.5153 -75.0711 77° East 151 174 9,000 50 Level Boston Center
Wed 03:23:39 PM 41.5144 -75.0158 91° East 139 160 9,100  Climbing Boston Center
Wed 03:24:39 PM 41.5156 -74.9714 88° East 139 160 9,000  Descending Boston Center
Wed 03:25:39 PM 41.5125 -74.9103 94° East 139 160 9,100 50 Climbing Boston Center
Wed 03:26:39 PM 41.5094 -74.8631 95° East 139 160 9,100 -50 Level Boston Center
Wed 03:27:39 PM 41.5003 -74.8100 103° East 139 160 9,000  Descending Boston Center
Wed 03:28:39 PM 41.5117 -74.7606 73° East 139 160 9,100  Climbing Boston Center
Wed 03:29:39 PM 41.5294 -74.7003 68° East 149 171 9,000 -50 Descending Boston Center
Wed 03:30:39 PM 41.5408 -74.6533 72° East 149 171 9,000  Level Boston Center
Wed 03:31:39 PM 41.5586 -74.5931 68° East 149 171 9,000  Level Boston Center
Wed 03:32:39 PM 41.5744 -74.5381 69° East 154 177 9,000  Level Boston Center
Wed 03:33:39 PM 41.5881 -74.4744 74° East 164 189 9,000  Level Boston Center
Wed 03:34:39 PM 41.6017 -74.4111 74° East 169 194 9,000  Level Boston Center
Wed 03:35:39 PM 41.6131 -74.3506 76° East 169 194 9,000  Level Boston Center
Wed 03:36:39 PM 41.6247 -74.2869 76° East 169 194 9,000  Level Boston Center
Wed 03:37:39 PM 41.6361 -74.2261 76° East 164 189 9,000  Level Boston Center
Wed 03:38:39 PM 41.6453 -74.1625 79° East 164 189 9,000  Level Boston Center
Wed 03:39:39 PM 41.6506 -74.0986 84° East 164 189 9,000  Level Boston Center
Wed 03:40:39 PM 41.6533 -74.0433 86° East 164 189 9,000  Level Boston Center
Wed 03:41:39 PM 41.6647 -73.9739 78° East 164 189 9,000  Level Boston Center
Wed 03:42:39 PM 41.6717 -73.9186 80° East 164 189 9,000 50 Level Boston Center
Wed 03:43:39 PM 41.6747 -73.8492 87° East 159 183 9,100  Climbing Boston Center
Wed 03:44:39 PM 41.6753 -73.7936 89° East 159 183 9,000 -50 Descending Boston Center
Wed 03:45:39 PM 41.6783 -73.7242 87° East 159 183 9,000  Level Boston Center
Wed 03:46:39 PM 41.6789 -73.6714 89° East 164 189 9,000  Level Boston Center
Wed 03:47:39 PM 41.6817 -73.6019 87° East 163 188 9,000  Level Boston Center
Wed 03:48:17 PM 41.6819 -73.5631 89° East 166 191 9,000  Level Boston Center
Wed 03:48:39 PM 41.6822 -73.5492 88° East 163 188 9,000  Level Boston Center
Wed 03:49:39 PM 41.6767 -73.4794 96° East 158 182 9,000  Level Boston Center
Wed 03:49:54 PM 41.6725 -73.4628 108° East 163 188 9,000 100 Level Boston Center
Wed 03:50:39 PM 41.6728 -73.4267 89° East 163 188 9,100  Climbing Boston Center
Wed 03:51:51 PM 41.6694 -73.3600 94° East 163 188 9,000 -45 Descending Boston Center
Wed 03:52:51 PM 41.6700 -73.2878 89° East 157 181 9,000  Level Boston Center
Wed 03:53:08 PM 41.6678 -73.2711 100° East 163 188 9,000  Level Boston Center
Wed 03:53:51 PM 41.6703 -73.2322 85° East 157 181 9,000  Level Boston Center
Wed 03:54:57 PM 41.6708 -73.1597 89° East 161 185 9,000  Level Boston Center
Wed 03:55:58 PM 41.6733 -73.1017 87° East 161 185 9,000  Level Boston Center
Wed 03:56:59 PM 41.6736 -73.0375 90° East 163 188 9,000  Level Boston Center
Wed 03:57:59 PM 41.6758 -72.9819 87° East 161 185 9,000  Level Boston Center
Wed 03:59:06 PM 41.6719 -72.9097 94° East 165 190 9,000  Level Boston Center
Wed 04:00:07 PM 41.6639 -72.8542 101° East 160 184 9,000  Level Boston Center
Wed 04:01:13 PM 41.6581 -72.7875 97° East 161 185 9,000  Level Boston Center
Wed 04:02:08 PM 41.6519 -72.7344 99° East 162 186 9,000  Level Boston Center
Wed 04:03:09 PM 41.6458 -72.6761 98° East 159 183 9,000  Level Boston Center
Wed 04:03:57 PM 41.6394 -72.6261 100° East 161 185 9,000 -52 Level Boston Center
Wed 04:05:04 PM 41.6397 -72.5622 90° East 164 189 8,900  Descending Boston Center
Wed 04:06:11 PM 41.6481 -72.4956 80° East 159 183 9,000 128 Climbing Boston Center
Wed 04:06:38 PM 41.6522 -72.4678 79° East 156 180 9,100  Climbing Boston Center
Wed 04:07:02 PM 41.6583 -72.4428 72° East 159 183 9,000  Descending Boston Center
Wed 04:08:03 PM 41.6667 -72.3872 79° East 157 181 9,100 50 Climbing Boston Center
Wed 04:09:03 PM 41.6667 -72.3317 90° East 154 177 9,100  Level Boston Center
Wed 04:10:04 PM 41.6689 -72.2761 87° East 155 178 9,100 -49 Level Boston Center
Wed 04:11:05 PM 41.6686 -72.2178 90° East 157 181 9,000 -47 Descending Boston Center
Wed 04:12:11 PM 41.6706 -72.1511 88° East 154 177 9,000  Level Boston Center
Wed 04:13:12 PM 41.6706 -72.0928 90° East 153 176 9,000  Level Boston Center
Wed 04:14:13 PM 41.6722 -72.0344 88° East 157 181 9,000  Level Boston Center
Wed 04:15:07 PM 41.6700 -71.9817 93° East 157 181 9,000  Level Boston Center
Wed 04:16:08 PM 41.6697 -71.9261 90° East 154 177 9,000  Level Boston Center
Wed 04:18:09 PM 41.6714 -71.8092 89° East 154 177 9,000  Level Boston Center
Wed 04:19:10 PM 41.6708 -71.7508 91° East 156 180 9,000  Level Boston Center
Wed 04:20:10 PM 41.6664 -71.6953 96° East 155 178 9,000 -198 Level Boston Center
Wed 04:21:11 PM 41.6661 -71.6314 90° East 162 186 8,600 -375 Descending Boston Center
Wed 04:22:18 PM 41.6656 -71.5647 91° East 167 192 8,200 -378 Descending Boston Center
Wed 04:23:18 PM 41.6628 -71.5008 93° East 169 194 7,800 -417 Descending Boston Center
Wed 04:24:13 PM 41.6625 -71.4481 90° East 166 191 7,400 -417 Descending Boston Center
Wed 04:25:13 PM 41.6578 -71.3842 96° East 167 192 7,000 -198 Descending Boston Center
Wed 04:26:14 PM 41.6550 -71.3203 93° East 165 190 7,000  Level Boston Center
Wed 04:28:00 PM 41.6567 -71.2235 89° East  Level Estimated
Wed 04:35:00 PM 41.6628 -70.8399 89° East  Level Estimated
Wed 04:36:00 PM 41.6636 -70.7851 89° East  Level Estimated
Wed 04:37:00 PM 41.6643 -70.7303 89° East  Level Estimated
Wed 04:38:00 PM 41.6650 -70.6755 89° East  Level Estimated
Wed 04:39:00 PM 41.6657 -70.6207 89° East  Level Estimated
Wed 04:40:00 PM 41.6663 -70.5659 89° East  Level Estimated
Wed 04:41:00 PM 41.6670 -70.5111 89° East  Level Estimated
Wed 04:42:00 PM 41.6676 -70.4563 89° East  Level Estimated
Wed 04:43:00 PM 41.6682 -70.4015 89° East  Level Estimated
Wed 04:44:00 PM 41.6687 -70.3466 89° East  Level Estimated
Wed 04:45:00 PM 41.6692 -70.2918 89° East  Level Estimated
Wed 04:46:00 PM 41.6693 -70.2804 89° East  Level Estimated
Wed 04:47:00 PM 41.6693 -70.2804 346° North  Level Estimated
Wed 04:48:00 PM 41.6693 -70.2804 346° North  Level Estimated
Wed 04:49:00 PM 41.6693 -70.2804 346° North  Level Estimated
Wed 04:50:00 PM 41.6693 -70.2804 346° North  Level Estimated
Wed 04:51:00 PM 41.6693 -70.2804 346° North  Level Estimated
Wed 04:52:00 PM 41.6693 -70.2804 346° North  Level Estimated
Wed 04:53:00 PM 41.6693 -70.2804 346° North  Level Estimated
Wed 04:54:00 PM 41.6693 -70.2804 346° North  Level Estimated
Wed 04:55:00 PM 41.6693 -70.2804 346° North  Level Estimated
Wed 04:56:00 PM 41.6693 -70.2804 346° North  Level Estimated
Wed 04:57:00 PM 41.6693 -70.2804 346° North  Level Estimated
Wed 04:58:00 PM 41.6693 -70.2804 346° North  Level Estimated
Wed 04:59:00 PM 41.6693 -70.2804 346° North  Level Estimated

Login

Don't have an account? Register now (free) for customized features, flight alerts, and more!